sensor_id;sensor_type;location;lat;lon;timestamp;P1;durP1;ratioP1;P2;durP2;ratioP2
29432;SDS011;16405;53.964;13.448;2023-02-12T00:01:08;80.82;;;10.93;;
29432;SDS011;16405;53.964;13.448;2023-02-12T00:06:07;63.78;;;8.85;;
29432;SDS011;16405;53.964;13.448;2023-02-12T00:08:35;46.45;;;6.50;;
29432;SDS011;16405;53.964;13.448;2023-02-12T00:13:36;51.38;;;6.63;;
29432;SDS011;16405;53.964;13.448;2023-02-12T00:16:03;63.33;;;7.25;;
29432;SDS011;16405;53.964;13.448;2023-02-12T00:18:34;84.55;;;10.05;;
29432;SDS011;16405;53.964;13.448;2023-02-12T00:21:00;104.80;;;11.80;;
29432;SDS011;16405;53.964;13.448;2023-02-12T00:23:27;148.23;;;14.02;;
29432;SDS011;16405;53.964;13.448;2023-02-12T00:25:53;155.20;;;12.90;;
29432;SDS011;16405;53.964;13.448;2023-02-12T00:28:19;180.82;;;15.48;;
29432;SDS011;16405;53.964;13.448;2023-02-12T00:30:51;138.25;;;13.75;;
29432;SDS011;16405;53.964;13.448;2023-02-12T00:33:17;154.45;;;14.52;;
29432;SDS011;16405;53.964;13.448;2023-02-12T00:35:43;145.18;;;11.77;;
29432;SDS011;16405;53.964;13.448;2023-02-12T00:38:08;145.48;;;13.38;;
29432;SDS011;16405;53.964;13.448;2023-02-12T00:40:34;275.35;;;20.15;;
29432;SDS011;16405;53.964;13.448;2023-02-12T00:43:00;162.32;;;14.77;;
29432;SDS011;16405;53.964;13.448;2023-02-12T00:45:31;185.35;;;16.08;;
29432;SDS011;16405;53.964;13.448;2023-02-12T00:47:57;186.23;;;15.57;;
29432;SDS011;16405;53.964;13.448;2023-02-12T00:50:22;221.00;;;15.35;;
29432;SDS011;16405;53.964;13.448;2023-02-12T00:52:48;169.40;;;14.05;;
29432;SDS011;16405;53.964;13.448;2023-02-12T00:55:14;178.65;;;13.07;;
29432;SDS011;16405;53.964;13.448;2023-02-12T00:57:40;163.18;;;13.82;;
29432;SDS011;16405;53.964;13.448;2023-02-12T01:00:13;227.35;;;16.52;;
29432;SDS011;16405;53.964;13.448;2023-02-12T01:02:40;121.40;;;12.07;;
29432;SDS011;16405;53.964;13.448;2023-02-12T01:05:06;195.75;;;16.17;;
29432;SDS011;16405;53.964;13.448;2023-02-12T01:07:35;227.85;;;17.02;;
29432;SDS011;16405;53.964;13.448;2023-02-12T01:10:05;140.20;;;13.45;;
29432;SDS011;16405;53.964;13.448;2023-02-12T01:12:32;162.85;;;15.55;;
29432;SDS011;16405;53.964;13.448;2023-02-12T01:14:58;144.85;;;14.80;;
29432;SDS011;16405;53.964;13.448;2023-02-12T01:17:24;105.65;;;11.48;;
29432;SDS011;16405;53.964;13.448;2023-02-12T01:19:58;145.90;;;16.65;;
29432;SDS011;16405;53.964;13.448;2023-02-12T01:22:24;121.13;;;13.52;;
29432;SDS011;16405;53.964;13.448;2023-02-12T01:24:50;86.85;;;10.93;;
29432;SDS011;16405;53.964;13.448;2023-02-12T01:27:16;58.80;;;8.18;;
29432;SDS011;16405;53.964;13.448;2023-02-12T01:29:46;64.18;;;7.50;;
29432;SDS011;16405;53.964;13.448;2023-02-12T01:32:12;65.97;;;8.20;;
29432;SDS011;16405;53.964;13.448;2023-02-12T01:34:37;40.95;;;7.13;;
29432;SDS011;16405;53.964;13.448;2023-02-12T01:37:03;56.03;;;7.50;;
29432;SDS011;16405;53.964;13.448;2023-02-12T01:39:29;98.07;;;11.48;;
29432;SDS011;16405;53.964;13.448;2023-02-12T01:41:55;88.95;;;11.13;;
29432;SDS011;16405;53.964;13.448;2023-02-12T01:44:22;96.10;;;10.52;;
29432;SDS011;16405;53.964;13.448;2023-02-12T01:46:57;69.43;;;8.95;;
29432;SDS011;16405;53.964;13.448;2023-02-12T01:54:52;101.65;;;11.60;;
29432;SDS011;16405;53.964;13.448;2023-02-12T01:57:22;98.43;;;10.85;;
29432;SDS011;16405;53.964;13.448;2023-02-12T01:59:50;78.78;;;9.10;;
29432;SDS011;16405;53.964;13.448;2023-02-12T02:02:22;91.53;;;9.85;;
29432;SDS011;16405;53.964;13.448;2023-02-12T02:04:49;80.10;;;9.82;;
29432;SDS011;16405;53.964;13.448;2023-02-12T02:07:23;49.17;;;7.30;;
29432;SDS011;16405;53.964;13.448;2023-02-12T02:09:49;80.82;;;8.30;;
29432;SDS011;16405;53.964;13.448;2023-02-12T02:12:16;63.85;;;7.07;;
29432;SDS011;16405;53.964;13.448;2023-02-12T02:15:01;123.07;;;11.70;;
29432;SDS011;16405;53.964;13.448;2023-02-12T02:20:18;92.80;;;10.35;;
29432;SDS011;16405;53.964;13.448;2023-02-12T02:23:17;58.25;;;6.60;;
29432;SDS011;16405;53.964;13.448;2023-02-12T02:29:04;96.78;;;10.20;;
29432;SDS011;16405;53.964;13.448;2023-02-12T02:31:58;91.30;;;11.05;;
29432;SDS011;16405;53.964;13.448;2023-02-12T02:41:04;84.72;;;9.88;;
29432;SDS011;16405;53.964;13.448;2023-02-12T02:43:57;106.82;;;10.57;;
29432;SDS011;16405;53.964;13.448;2023-02-12T02:46:34;98.63;;;10.77;;
29432;SDS011;16405;53.964;13.448;2023-02-12T02:49:18;108.72;;;11.98;;
29432;SDS011;16405;53.964;13.448;2023-02-12T02:51:56;106.78;;;11.80;;
29432;SDS011;16405;53.964;13.448;2023-02-12T02:54:30;109.10;;;11.43;;
29432;SDS011;16405;53.964;13.448;2023-02-12T02:57:44;117.78;;;11.68;;
29432;SDS011;16405;53.964;13.448;2023-02-12T02:59:54;118.38;;;12.43;;
29432;SDS011;16405;53.964;13.448;2023-02-12T03:02:35;97.35;;;11.75;;
29432;SDS011;16405;53.964;13.448;2023-02-12T03:05:09;118.05;;;12.68;;
29432;SDS011;16405;53.964;13.448;2023-02-12T03:07:41;116.05;;;12.02;;
29432;SDS011;16405;53.964;13.448;2023-02-12T03:10:21;73.45;;;10.32;;
29432;SDS011;16405;53.964;13.448;2023-02-12T03:12:57;108.97;;;11.27;;
29432;SDS011;16405;53.964;13.448;2023-02-12T03:18:25;84.20;;;10.32;;
29432;SDS011;16405;53.964;13.448;2023-02-12T03:21:04;87.05;;;9.75;;
29432;SDS011;16405;53.964;13.448;2023-02-12T03:23:44;91.63;;;10.43;;
29432;SDS011;16405;53.964;13.448;2023-02-12T03:26:21;84.13;;;10.48;;
29432;SDS011;16405;53.964;13.448;2023-02-12T03:28:58;93.10;;;11.07;;
29432;SDS011;16405;53.964;13.448;2023-02-12T03:31:28;89.38;;;10.13;;
29432;SDS011;16405;53.964;13.448;2023-02-12T03:34:12;82.47;;;10.35;;
29432;SDS011;16405;53.964;13.448;2023-02-12T03:37:08;79.65;;;9.68;;
29432;SDS011;16405;53.964;13.448;2023-02-12T03:45:09;92.07;;;11.75;;
29432;SDS011;16405;53.964;13.448;2023-02-12T03:53:58;123.82;;;15.88;;
29432;SDS011;16405;53.964;13.448;2023-02-12T03:56:49;124.63;;;16.73;;
29432;SDS011;16405;53.964;13.448;2023-02-12T03:59:27;168.27;;;20.02;;
29432;SDS011;16405;53.964;13.448;2023-02-12T04:01:54;156.77;;;19.92;;
29432;SDS011;16405;53.964;13.448;2023-02-12T04:04:27;128.32;;;20.25;;
29432;SDS011;16405;53.964;13.448;2023-02-12T04:06:54;187.48;;;21.52;;
29432;SDS011;16405;53.964;13.448;2023-02-12T04:09:21;155.35;;;21.98;;
29432;SDS011;16405;53.964;13.448;2023-02-12T04:17:39;226.88;;;26.80;;
29432;SDS011;16405;53.964;13.448;2023-02-12T04:26:22;245.75;;;27.30;;
29432;SDS011;16405;53.964;13.448;2023-02-12T04:29:25;234.52;;;28.13;;
29432;SDS011;16405;53.964;13.448;2023-02-12T04:37:50;286.88;;;31.17;;
29432;SDS011;16405;53.964;13.448;2023-02-12T04:40:25;262.20;;;31.30;;
29432;SDS011;16405;53.964;13.448;2023-02-12T04:42:52;288.77;;;30.92;;
29432;SDS011;16405;53.964;13.448;2023-02-12T04:45:36;250.88;;;32.20;;
29432;SDS011;16405;53.964;13.448;2023-02-12T04:48:03;409.02;;;34.58;;
29432;SDS011;16405;53.964;13.448;2023-02-12T04:50:40;337.55;;;31.63;;
29432;SDS011;16405;53.964;13.448;2023-02-12T04:53:16;415.55;;;34.65;;
29432;SDS011;16405;53.964;13.448;2023-02-12T04:55:42;358.80;;;34.50;;
29432;SDS011;16405;53.964;13.448;2023-02-12T04:58:08;409.25;;;34.53;;
29432;SDS011;16405;53.964;13.448;2023-02-12T05:00:34;413.42;;;37.17;;
29432;SDS011;16405;53.964;13.448;2023-02-12T05:03:00;376.48;;;34.90;;
29432;SDS011;16405;53.964;13.448;2023-02-12T05:05:31;386.88;;;34.35;;
29432;SDS011;16405;53.964;13.448;2023-02-12T05:07:59;461.95;;;37.38;;
29432;SDS011;16405;53.964;13.448;2023-02-12T05:10:25;263.52;;;31.23;;
29432;SDS011;16405;53.964;13.448;2023-02-12T05:12:52;375.70;;;35.58;;
29432;SDS011;16405;53.964;13.448;2023-02-12T05:15:27;432.60;;;37.65;;
29432;SDS011;16405;53.964;13.448;2023-02-12T05:17:53;447.83;;;38.38;;
29432;SDS011;16405;53.964;13.448;2023-02-12T05:20:19;434.33;;;35.92;;
29432;SDS011;16405;53.964;13.448;2023-02-12T05:22:45;252.55;;;31.88;;
29432;SDS011;16405;53.964;13.448;2023-02-12T05:25:14;262.83;;;31.35;;
29432;SDS011;16405;53.964;13.448;2023-02-12T05:27:40;204.57;;;29.45;;
29432;SDS011;16405;53.964;13.448;2023-02-12T05:30:06;218.98;;;28.77;;
29432;SDS011;16405;53.964;13.448;2023-02-12T05:32:33;216.18;;;29.50;;
29432;SDS011;16405;53.964;13.448;2023-02-12T05:34:59;193.38;;;29.15;;
29432;SDS011;16405;53.964;13.448;2023-02-12T05:37:27;222.55;;;31.92;;
29432;SDS011;16405;53.964;13.448;2023-02-12T05:39:55;180.20;;;29.50;;
29432;SDS011;16405;53.964;13.448;2023-02-12T05:42:21;225.20;;;28.83;;
29432;SDS011;16405;53.964;13.448;2023-02-12T05:44:46;207.38;;;29.48;;
29432;SDS011;16405;53.964;13.448;2023-02-12T05:47:12;216.48;;;30.88;;
29432;SDS011;16405;53.964;13.448;2023-02-12T05:49:38;172.73;;;27.50;;
29432;SDS011;16405;53.964;13.448;2023-02-12T05:52:04;182.75;;;26.95;;
29432;SDS011;16405;53.964;13.448;2023-02-12T05:54:30;189.85;;;27.73;;
29432;SDS011;16405;53.964;13.448;2023-02-12T05:56:58;171.48;;;28.05;;
29432;SDS011;16405;53.964;13.448;2023-02-12T05:59:24;179.35;;;27.42;;
29432;SDS011;16405;53.964;13.448;2023-02-12T06:01:50;182.93;;;27.25;;
29432;SDS011;16405;53.964;13.448;2023-02-12T06:04:18;193.88;;;27.92;;
29432;SDS011;16405;53.964;13.448;2023-02-12T06:06:50;189.68;;;27.00;;
29432;SDS011;16405;53.964;13.448;2023-02-12T06:09:17;174.70;;;27.35;;
29432;SDS011;16405;53.964;13.448;2023-02-12T06:11:44;185.80;;;27.20;;
29432;SDS011;16405;53.964;13.448;2023-02-12T06:14:11;192.00;;;27.63;;
29432;SDS011;16405;53.964;13.448;2023-02-12T06:16:46;181.60;;;26.42;;
29432;SDS011;16405;53.964;13.448;2023-02-12T06:19:14;185.85;;;24.67;;
29432;SDS011;16405;53.964;13.448;2023-02-12T06:21:46;202.18;;;25.92;;
29432;SDS011;16405;53.964;13.448;2023-02-12T06:24:12;182.90;;;25.40;;
29432;SDS011;16405;53.964;13.448;2023-02-12T06:26:40;155.27;;;22.85;;
29432;SDS011;16405;53.964;13.448;2023-02-12T06:29:06;167.48;;;25.23;;
29432;SDS011;16405;53.964;13.448;2023-02-12T06:31:33;187.40;;;23.73;;
29432;SDS011;16405;53.964;13.448;2023-02-12T06:34:04;201.95;;;23.52;;
29432;SDS011;16405;53.964;13.448;2023-02-12T06:36:35;181.40;;;22.77;;
29432;SDS011;16405;53.964;13.448;2023-02-12T06:39:06;192.45;;;23.15;;
29432;SDS011;16405;53.964;13.448;2023-02-12T06:41:33;190.52;;;22.80;;
29432;SDS011;16405;53.964;13.448;2023-02-12T06:43:59;205.07;;;23.38;;
29432;SDS011;16405;53.964;13.448;2023-02-12T06:46:24;252.07;;;25.67;;
29432;SDS011;16405;53.964;13.448;2023-02-12T06:48:54;216.52;;;24.38;;
29432;SDS011;16405;53.964;13.448;2023-02-12T06:51:24;217.57;;;23.73;;
29432;SDS011;16405;53.964;13.448;2023-02-12T06:53:53;164.85;;;20.30;;
29432;SDS011;16405;53.964;13.448;2023-02-12T06:56:20;260.80;;;23.77;;
29432;SDS011;16405;53.964;13.448;2023-02-12T06:58:56;235.77;;;22.75;;
29432;SDS011;16405;53.964;13.448;2023-02-12T07:01:32;146.10;;;20.08;;
29432;SDS011;16405;53.964;13.448;2023-02-12T07:03:59;106.60;;;18.63;;
29432;SDS011;16405;53.964;13.448;2023-02-12T07:06:26;164.15;;;20.95;;
29432;SDS011;16405;53.964;13.448;2023-02-12T07:08:59;149.82;;;20.48;;
29432;SDS011;16405;53.964;13.448;2023-02-12T07:11:27;130.93;;;19.58;;
29432;SDS011;16405;53.964;13.448;2023-02-12T07:13:55;136.93;;;19.05;;
29432;SDS011;16405;53.964;13.448;2023-02-12T07:16:21;131.50;;;18.17;;
29432;SDS011;16405;53.964;13.448;2023-02-12T07:18:47;98.85;;;16.75;;
29432;SDS011;16405;53.964;13.448;2023-02-12T07:21:16;118.22;;;15.93;;
29432;SDS011;16405;53.964;13.448;2023-02-12T07:23:45;154.38;;;19.55;;
29432;SDS011;16405;53.964;13.448;2023-02-12T07:26:16;54.00;;;11.55;;
29432;SDS011;16405;53.964;13.448;2023-02-12T07:28:43;54.63;;;12.60;;
29432;SDS011;16405;53.964;13.448;2023-02-12T07:31:13;79.07;;;13.70;;
29432;SDS011;16405;53.964;13.448;2023-02-12T07:33:48;66.15;;;12.90;;
29432;SDS011;16405;53.964;13.448;2023-02-12T07:36:18;69.80;;;13.10;;
29432;SDS011;16405;53.964;13.448;2023-02-12T07:38:45;77.72;;;12.88;;
29432;SDS011;16405;53.964;13.448;2023-02-12T07:41:19;68.05;;;12.40;;
29432;SDS011;16405;53.964;13.448;2023-02-12T07:43:57;82.40;;;14.45;;
29432;SDS011;16405;53.964;13.448;2023-02-12T07:46:30;87.50;;;13.88;;
29432;SDS011;16405;53.964;13.448;2023-02-12T07:49:03;90.60;;;14.52;;
29432;SDS011;16405;53.964;13.448;2023-02-12T07:51:31;78.20;;;13.13;;
29432;SDS011;16405;53.964;13.448;2023-02-12T07:54:03;78.15;;;13.57;;
29432;SDS011;16405;53.964;13.448;2023-02-12T07:56:30;71.60;;;13.27;;
29432;SDS011;16405;53.964;13.448;2023-02-12T07:58:59;74.95;;;13.40;;
29432;SDS011;16405;53.964;13.448;2023-02-12T08:01:36;65.80;;;12.27;;
29432;SDS011;16405;53.964;13.448;2023-02-12T08:04:12;54.15;;;10.90;;
29432;SDS011;16405;53.964;13.448;2023-02-12T08:06:42;45.38;;;10.48;;
29432;SDS011;16405;53.964;13.448;2023-02-12T08:09:21;48.55;;;9.77;;
29432;SDS011;16405;53.964;13.448;2023-02-12T08:11:55;65.93;;;10.80;;
29432;SDS011;16405;53.964;13.448;2023-02-12T08:14:21;59.25;;;10.45;;
29432;SDS011;16405;53.964;13.448;2023-02-12T08:16:48;64.03;;;10.90;;
29432;SDS011;16405;53.964;13.448;2023-02-12T08:19:15;65.15;;;10.82;;
29432;SDS011;16405;53.964;13.448;2023-02-12T08:21:43;55.53;;;10.27;;
29432;SDS011;16405;53.964;13.448;2023-02-12T08:24:16;50.25;;;10.23;;
29432;SDS011;16405;53.964;13.448;2023-02-12T08:26:41;47.42;;;9.70;;
29432;SDS011;16405;53.964;13.448;2023-02-12T08:29:13;56.08;;;10.80;;
29432;SDS011;16405;53.964;13.448;2023-02-12T08:31:45;52.72;;;10.18;;
29432;SDS011;16405;53.964;13.448;2023-02-12T08:34:22;62.90;;;11.07;;
29432;SDS011;16405;53.964;13.448;2023-02-12T08:36:54;58.28;;;12.43;;
29432;SDS011;16405;53.964;13.448;2023-02-12T08:39:25;60.38;;;12.77;;
29432;SDS011;16405;53.964;13.448;2023-02-12T08:41:54;39.08;;;11.40;;
29432;SDS011;16405;53.964;13.448;2023-02-12T08:44:32;39.60;;;10.30;;
29432;SDS011;16405;53.964;13.448;2023-02-12T08:46:58;39.67;;;10.50;;
29432;SDS011;16405;53.964;13.448;2023-02-12T08:49:25;50.85;;;11.45;;
29432;SDS011;16405;53.964;13.448;2023-02-12T08:51:55;35.55;;;10.90;;
29432;SDS011;16405;53.964;13.448;2023-02-12T08:54:23;48.25;;;11.70;;
29432;SDS011;16405;53.964;13.448;2023-02-12T08:56:57;41.00;;;11.18;;
29432;SDS011;16405;53.964;13.448;2023-02-12T08:59:25;44.78;;;10.95;;
29432;SDS011;16405;53.964;13.448;2023-02-12T09:01:51;32.47;;;10.50;;
29432;SDS011;16405;53.964;13.448;2023-02-12T09:04:23;45.45;;;11.27;;
29432;SDS011;16405;53.964;13.448;2023-02-12T09:06:52;42.67;;;11.07;;
29432;SDS011;16405;53.964;13.448;2023-02-12T09:09:19;52.38;;;10.88;;
29432;SDS011;16405;53.964;13.448;2023-02-12T09:11:46;50.47;;;12.25;;
29432;SDS011;16405;53.964;13.448;2023-02-12T09:14:14;44.40;;;11.07;;
29432;SDS011;16405;53.964;13.448;2023-02-12T09:16:47;39.97;;;10.48;;
29432;SDS011;16405;53.964;13.448;2023-02-12T09:19:16;39.42;;;9.68;;
29432;SDS011;16405;53.964;13.448;2023-02-12T09:21:51;29.33;;;8.13;;
29432;SDS011;16405;53.964;13.448;2023-02-12T09:24:18;22.17;;;6.20;;
29432;SDS011;16405;53.964;13.448;2023-02-12T09:26:57;31.00;;;7.93;;
29432;SDS011;16405;53.964;13.448;2023-02-12T09:29:23;15.77;;;3.38;;
29432;SDS011;16405;53.964;13.448;2023-02-12T09:31:54;6.10;;;2.38;;
29432;SDS011;16405;53.964;13.448;2023-02-12T09:34:29;5.93;;;1.67;;
29432;SDS011;16405;53.964;13.448;2023-02-12T09:37:03;11.30;;;2.20;;
29432;SDS011;16405;53.964;13.448;2023-02-12T09:39:29;9.82;;;2.38;;
29432;SDS011;16405;53.964;13.448;2023-02-12T09:50:54;6.28;;;2.03;;
29432;SDS011;16405;53.964;13.448;2023-02-12T09:53:42;4.47;;;1.52;;
29432;SDS011;16405;53.964;13.448;2023-02-12T09:56:28;9.98;;;2.40;;
29432;SDS011;16405;53.964;13.448;2023-02-12T09:58:55;9.75;;;2.72;;
29432;SDS011;16405;53.964;13.448;2023-02-12T10:01:31;11.43;;;2.40;;
29432;SDS011;16405;53.964;13.448;2023-02-12T10:03:58;10.60;;;2.42;;
29432;SDS011;16405;53.964;13.448;2023-02-12T10:06:26;9.32;;;1.45;;
29432;SDS011;16405;53.964;13.448;2023-02-12T10:17:51;4.63;;;1.42;;
29432;SDS011;16405;53.964;13.448;2023-02-12T10:26:32;6.90;;;1.83;;
29432;SDS011;16405;53.964;13.448;2023-02-12T10:31:59;5.60;;;1.88;;
29432;SDS011;16405;53.964;13.448;2023-02-12T10:34:35;5.20;;;1.65;;
29432;SDS011;16405;53.964;13.448;2023-02-12T10:37:24;9.38;;;2.70;;
29432;SDS011;16405;53.964;13.448;2023-02-12T10:40:27;7.15;;;2.33;;
29432;SDS011;16405;53.964;13.448;2023-02-12T10:42:58;7.93;;;2.17;;
29432;SDS011;16405;53.964;13.448;2023-02-12T10:45:36;5.35;;;1.90;;
29432;SDS011;16405;53.964;13.448;2023-02-12T10:50:43;6.85;;;1.58;;
29432;SDS011;16405;53.964;13.448;2023-02-12T10:56:17;9.05;;;2.58;;
29432;SDS011;16405;53.964;13.448;2023-02-12T10:58:52;7.10;;;1.80;;
29432;SDS011;16405;53.964;13.448;2023-02-12T11:03:59;11.70;;;2.20;;
29432;SDS011;16405;53.964;13.448;2023-02-12T11:09:34;18.30;;;4.10;;
29432;SDS011;16405;53.964;13.448;2023-02-12T11:15:00;15.55;;;3.33;;
29432;SDS011;16405;53.964;13.448;2023-02-12T11:17:53;13.25;;;4.05;;
29432;SDS011;16405;53.964;13.448;2023-02-12T11:23:06;17.85;;;4.43;;
29432;SDS011;16405;53.964;13.448;2023-02-12T11:26:25;12.93;;;3.30;;
29432;SDS011;16405;53.964;13.448;2023-02-12T11:29:00;12.82;;;3.28;;
29432;SDS011;16405;53.964;13.448;2023-02-12T11:31:41;12.45;;;2.63;;
29432;SDS011;16405;53.964;13.448;2023-02-12T11:34:23;20.52;;;4.45;;
29432;SDS011;16405;53.964;13.448;2023-02-12T11:36:49;10.85;;;3.40;;
29432;SDS011;16405;53.964;13.448;2023-02-12T11:39:33;11.32;;;3.40;;
29432;SDS011;16405;53.964;13.448;2023-02-12T11:42:25;14.45;;;4.03;;
29432;SDS011;16405;53.964;13.448;2023-02-12T11:45:02;12.32;;;3.40;;
29432;SDS011;16405;53.964;13.448;2023-02-12T11:47:29;16.50;;;3.95;;
29432;SDS011;16405;53.964;13.448;2023-02-12T11:50:07;14.70;;;2.97;;
29432;SDS011;16405;53.964;13.448;2023-02-12T11:52:43;16.58;;;3.45;;
29432;SDS011;16405;53.964;13.448;2023-02-12T11:55:26;15.32;;;3.40;;
29432;SDS011;16405;53.964;13.448;2023-02-12T12:04:13;15.02;;;2.70;;
29432;SDS011;16405;53.964;13.448;2023-02-12T12:09:25;21.95;;;5.28;;
29432;SDS011;16405;53.964;13.448;2023-02-12T12:12:31;23.27;;;5.63;;
29432;SDS011;16405;53.964;13.448;2023-02-12T12:15:16;23.05;;;5.43;;
29432;SDS011;16405;53.964;13.448;2023-02-12T12:18:28;21.23;;;6.45;;
29432;SDS011;16405;53.964;13.448;2023-02-12T12:21:36;20.83;;;7.75;;
29432;SDS011;16405;53.964;13.448;2023-02-12T12:56:08;19.83;;;4.47;;
29432;SDS011;16405;53.964;13.448;2023-02-12T13:11:30;19.92;;;4.03;;
29432;SDS011;16405;53.964;13.448;2023-02-12T13:14:47;16.90;;;3.30;;
29432;SDS011;16405;53.964;13.448;2023-02-12T13:18:13;9.32;;;2.67;;
29432;SDS011;16405;53.964;13.448;2023-02-12T13:27:10;18.70;;;3.55;;
29432;SDS011;16405;53.964;13.448;2023-02-12T13:29:48;19.88;;;3.78;;
29432;SDS011;16405;53.964;13.448;2023-02-12T13:32:33;17.50;;;3.78;;
29432;SDS011;16405;53.964;13.448;2023-02-12T13:35:14;13.02;;;3.47;;
29432;SDS011;16405;53.964;13.448;2023-02-12T13:37:53;17.13;;;3.83;;
29432;SDS011;16405;53.964;13.448;2023-02-12T13:40:29;16.08;;;3.67;;
29432;SDS011;16405;53.964;13.448;2023-02-12T13:45:58;17.23;;;3.50;;
29432;SDS011;16405;53.964;13.448;2023-02-12T13:51:52;15.95;;;3.53;;
29432;SDS011;16405;53.964;13.448;2023-02-12T13:54:41;14.68;;;3.30;;
29432;SDS011;16405;53.964;13.448;2023-02-12T13:57:20;13.60;;;3.10;;
29432;SDS011;16405;53.964;13.448;2023-02-12T13:59:54;13.80;;;3.47;;
29432;SDS011;16405;53.964;13.448;2023-02-12T14:02:25;22.05;;;3.08;;
29432;SDS011;16405;53.964;13.448;2023-02-12T14:07:56;15.70;;;3.50;;
29432;SDS011;16405;53.964;13.448;2023-02-12T14:10:33;18.88;;;3.63;;
29432;SDS011;16405;53.964;13.448;2023-02-12T14:13:21;15.95;;;3.92;;
29432;SDS011;16405;53.964;13.448;2023-02-12T14:15:55;18.95;;;3.90;;
29432;SDS011;16405;53.964;13.448;2023-02-12T14:18:25;19.88;;;2.95;;
29432;SDS011;16405;53.964;13.448;2023-02-12T14:23:41;20.83;;;3.65;;
29432;SDS011;16405;53.964;13.448;2023-02-12T14:26:13;13.45;;;3.03;;
29432;SDS011;16405;53.964;13.448;2023-02-12T14:33:48;18.70;;;3.50;;
29432;SDS011;16405;53.964;13.448;2023-02-12T14:39:01;22.10;;;3.70;;
29432;SDS011;16405;53.964;13.448;2023-02-12T14:41:43;20.40;;;3.55;;
29432;SDS011;16405;53.964;13.448;2023-02-12T14:49:37;20.08;;;4.28;;
29432;SDS011;16405;53.964;13.448;2023-02-12T14:52:21;22.73;;;3.17;;
29432;SDS011;16405;53.964;13.448;2023-02-12T14:54:56;15.05;;;3.22;;
29432;SDS011;16405;53.964;13.448;2023-02-12T14:57:39;19.35;;;3.67;;
29432;SDS011;16405;53.964;13.448;2023-02-12T15:02:46;25.70;;;3.65;;
29432;SDS011;16405;53.964;13.448;2023-02-12T15:08:10;18.83;;;3.28;;
29432;SDS011;16405;53.964;13.448;2023-02-12T15:10:56;21.02;;;3.90;;
29432;SDS011;16405;53.964;13.448;2023-02-12T15:13:45;16.85;;;3.55;;
29432;SDS011;16405;53.964;13.448;2023-02-12T15:21:51;18.75;;;4.07;;
29432;SDS011;16405;53.964;13.448;2023-02-12T15:24:22;24.77;;;4.78;;
29432;SDS011;16405;53.964;13.448;2023-02-12T15:26:53;16.27;;;4.13;;
29432;SDS011;16405;53.964;13.448;2023-02-12T15:29:24;15.95;;;3.30;;
29432;SDS011;16405;53.964;13.448;2023-02-12T15:31:55;18.13;;;4.07;;
29432;SDS011;16405;53.964;13.448;2023-02-12T15:34:27;19.60;;;4.72;;
29432;SDS011;16405;53.964;13.448;2023-02-12T15:37:04;18.42;;;3.90;;
29432;SDS011;16405;53.964;13.448;2023-02-12T15:42:31;30.98;;;5.53;;
29432;SDS011;16405;53.964;13.448;2023-02-12T15:47:41;15.95;;;3.75;;
29432;SDS011;16405;53.964;13.448;2023-02-12T15:50:11;26.77;;;4.35;;
29432;SDS011;16405;53.964;13.448;2023-02-12T15:52:43;18.63;;;4.10;;
29432;SDS011;16405;53.964;13.448;2023-02-12T15:55:13;27.13;;;4.90;;
29432;SDS011;16405;53.964;13.448;2023-02-12T15:57:53;22.80;;;4.35;;
29432;SDS011;16405;53.964;13.448;2023-02-12T16:00:31;23.90;;;4.38;;
29432;SDS011;16405;53.964;13.448;2023-02-12T16:03:25;27.80;;;4.47;;
29432;SDS011;16405;53.964;13.448;2023-02-12T16:06:00;25.00;;;4.35;;
29432;SDS011;16405;53.964;13.448;2023-02-12T16:08:30;21.55;;;4.43;;
29432;SDS011;16405;53.964;13.448;2023-02-12T16:10:58;23.73;;;4.30;;
29432;SDS011;16405;53.964;13.448;2023-02-12T16:13:38;18.70;;;4.00;;
29432;SDS011;16405;53.964;13.448;2023-02-12T16:16:18;19.58;;;3.90;;
29432;SDS011;16405;53.964;13.448;2023-02-12T16:22:00;20.13;;;3.88;;
29432;SDS011;16405;53.964;13.448;2023-02-12T16:24:36;21.70;;;3.78;;
29432;SDS011;16405;53.964;13.448;2023-02-12T16:27:19;19.08;;;4.25;;
29432;SDS011;16405;53.964;13.448;2023-02-12T16:29:55;20.55;;;4.78;;
29432;SDS011;16405;53.964;13.448;2023-02-12T16:42:58;31.58;;;6.43;;
29432;SDS011;16405;53.964;13.448;2023-02-12T16:45:32;25.58;;;5.50;;
29432;SDS011;16405;53.964;13.448;2023-02-12T16:48:15;21.13;;;4.68;;
29432;SDS011;16405;53.964;13.448;2023-02-12T16:50:52;25.55;;;4.95;;
29432;SDS011;16405;53.964;13.448;2023-02-12T16:53:24;21.77;;;4.50;;
29432;SDS011;16405;53.964;13.448;2023-02-12T16:56:00;26.90;;;4.75;;
29432;SDS011;16405;53.964;13.448;2023-02-12T16:58:28;21.33;;;5.95;;
29432;SDS011;16405;53.964;13.448;2023-02-12T17:01:02;26.08;;;5.32;;
29432;SDS011;16405;53.964;13.448;2023-02-12T17:03:29;26.90;;;5.93;;
29432;SDS011;16405;53.964;13.448;2023-02-12T17:05:55;17.50;;;4.93;;
29432;SDS011;16405;53.964;13.448;2023-02-12T17:08:30;26.77;;;5.50;;
29432;SDS011;16405;53.964;13.448;2023-02-12T17:10:55;25.52;;;5.65;;
29432;SDS011;16405;53.964;13.448;2023-02-12T17:13:21;26.30;;;5.63;;
29432;SDS011;16405;53.964;13.448;2023-02-12T17:16:05;17.98;;;4.35;;
29432;SDS011;16405;53.964;13.448;2023-02-12T17:18:33;25.63;;;5.30;;
29432;SDS011;16405;53.964;13.448;2023-02-12T17:23:55;28.67;;;4.90;;
29432;SDS011;16405;53.964;13.448;2023-02-12T17:26:21;20.88;;;4.60;;
29432;SDS011;16405;53.964;13.448;2023-02-12T17:28:48;29.35;;;4.68;;
29432;SDS011;16405;53.964;13.448;2023-02-12T17:31:16;22.83;;;5.15;;
29432;SDS011;16405;53.964;13.448;2023-02-12T17:33:44;23.65;;;4.53;;
29432;SDS011;16405;53.964;13.448;2023-02-12T17:36:13;22.92;;;5.03;;
29432;SDS011;16405;53.964;13.448;2023-02-12T17:38:39;33.38;;;5.80;;
29432;SDS011;16405;53.964;13.448;2023-02-12T17:41:08;22.13;;;5.00;;
29432;SDS011;16405;53.964;13.448;2023-02-12T17:43:42;19.73;;;4.88;;
29432;SDS011;16405;53.964;13.448;2023-02-12T17:46:09;23.25;;;4.80;;
29432;SDS011;16405;53.964;13.448;2023-02-12T17:48:43;28.05;;;5.75;;
29432;SDS011;16405;53.964;13.448;2023-02-12T17:51:09;24.85;;;5.45;;
29432;SDS011;16405;53.964;13.448;2023-02-12T17:53:39;19.65;;;4.88;;
29432;SDS011;16405;53.964;13.448;2023-02-12T17:56:12;33.65;;;6.30;;
29432;SDS011;16405;53.964;13.448;2023-02-12T17:58:41;33.85;;;6.65;;
29432;SDS011;16405;53.964;13.448;2023-02-12T18:01:09;30.40;;;5.75;;
29432;SDS011;16405;53.964;13.448;2023-02-12T18:03:37;23.10;;;5.32;;
29432;SDS011;16405;53.964;13.448;2023-02-12T18:06:04;30.20;;;5.72;;
29432;SDS011;16405;53.964;13.448;2023-02-12T18:08:31;22.60;;;5.18;;
29432;SDS011;16405;53.964;13.448;2023-02-12T18:10:58;22.55;;;4.80;;
29432;SDS011;16405;53.964;13.448;2023-02-12T18:13:30;27.60;;;5.47;;
29432;SDS011;16405;53.964;13.448;2023-02-12T18:15:56;28.90;;;5.07;;
29432;SDS011;16405;53.964;13.448;2023-02-12T18:18:22;22.67;;;4.22;;
29432;SDS011;16405;53.964;13.448;2023-02-12T18:20:47;22.48;;;5.47;;